LIMP/PMF METAR and TAF weather

Enter ICAO airport designator
Station Type Date Time Source
LIMP METAR 2019/07/17 09:50 UTC NOAA

LIMP 170950Z 08003KT 360V130 CAVOK 28/16 Q1013


Station Type Date Time Source
LIMP Decoded METAR 2019/07/17 09:50 UTC NOAA

Parma, Italy (LIMP) 44-49-17N 010-17-41E
Jul 17, 2019 - 05:50 AM EDT / 2019.07.17 0950 UTC
Wind: from the E (080 degrees) at 3 MPH (3 KT) (direction variable):0
Visibility: greater than 7 mile(s):0
Temperature: 82 F (28 C)
Dew Point: 60 F (16 C)
Relative Humidity: 48%
Pressure (altimeter): 29.91 in. Hg (1013 hPa)
ob: LIMP 170950Z 08003KT 360V130 CAVOK 28/16 Q1013
cycle: 10

Station Type Date Time Source
LIMP TAF 2019/07/17 12:21 UTC NOAA

TAF TAF LIMP 171100Z 1712/1812 VRB05KT CAVOK PROB30
TEMPO 1809/1812 TSRA

Example: see airport list